Time,TemperatureF,DewpointF,PressureIn,WindDirection,WindDirectionDegrees,WindSpeedMPH,WindSpeedGustMPH,Humidity,HourlyPrecipIn,Conditions,Clouds,dailyrainin,SoftwareType,DateUTC
2013-03-15 00:04:00,62.6,57.7,30.17,SSE,157,2.2,-999.0,84,-99.99,,,0.00,Acu-Link.com,2013-03-15 05:04:00,
2013-03-15 00:19:00,62.4,57.5,30.16,SE,135,2.2,-999.0,84,-99.99,,,0.00,Acu-Link.com,2013-03-15 05:19:00,
2013-03-15 00:34:00,62.1,57.5,30.16,SE,135,2.7,-999.0,85,-99.99,,,0.00,Acu-Link.com,2013-03-15 05:34:00,
2013-03-15 00:49:00,61.7,57.1,30.16,SSE,157,2.7,-999.0,85,-99.99,,,0.00,Acu-Link.com,2013-03-15 05:49:00,
2013-03-15 01:04:00,61.3,57.1,30.16,SSE,157,2.2,-999.0,86,-99.99,,,0.00,Acu-Link.com,2013-03-15 06:04:00,
2013-03-15 01:19:00,61.2,57.6,30.16,SE,135,1.7,-999.0,88,-99.99,,,0.00,Acu-Link.com,2013-03-15 06:19:00,
2013-03-15 01:35:00,61.0,57.7,30.15,East,90,2.2,-999.0,89,-99.99,,,0.00,Acu-Link.com,2013-03-15 06:35:00,
2013-03-15 01:50:00,61.2,57.9,30.15,SSE,157,2.7,-999.0,89,-99.99,,,0.00,Acu-Link.com,2013-03-15 06:50:00,
2013-03-15 02:05:00,60.8,57.5,30.14,SSE,157,2.2,-999.0,89,-99.99,,,0.00,Acu-Link.com,2013-03-15 07:05:00,
2013-03-15 02:20:00,60.8,57.8,30.13,ESE,112,1.7,-999.0,90,-99.99,,,0.00,Acu-Link.com,2013-03-15 07:20:00,
2013-03-15 02:35:00,60.4,57.8,30.13,ESE,112,1.7,-999.0,91,-99.99,,,0.00,Acu-Link.com,2013-03-15 07:35:00,
2013-03-15 02:50:00,60.4,57.8,30.12,SW,225,2.7,-999.0,91,-99.99,,,0.00,Acu-Link.com,2013-03-15 07:50:00,
2013-03-15 03:05:00,60.3,58.0,30.11,SSE,157,4.2,-999.0,92,-99.99,,,0.00,Acu-Link.com,2013-03-15 08:05:00,
2013-03-15 03:21:00,60.3,58.3,30.10,ESE,112,1.7,-999.0,93,-99.99,,,0.00,Acu-Link.com,2013-03-15 08:21:00,
2013-03-15 03:51:00,59.5,58.1,30.09,ESE,112,2.7,-999.0,95,-99.99,,,0.00,Acu-Link.com,2013-03-15 08:51:00,
2013-03-15 04:21:00,59.0,58.1,30.09,SE,135,1.7,-999.0,97,-99.99,,,0.00,Acu-Link.com,2013-03-15 09:21:00,
2013-03-15 04:36:00,59.0,58.4,30.09,ESE,112,2.7,-999.0,98,-99.99,,,0.00,Acu-Link.com,2013-03-15 09:36:00,
2013-03-15 05:06:00,58.5,57.9,30.09,SE,135,1.7,-999.0,98,-99.99,,,0.00,Acu-Link.com,2013-03-15 10:06:00,
2013-03-15 05:21:00,58.1,57.8,30.09,ESE,112,0.0,-999.0,99,-99.99,,,0.00,Acu-Link.com,2013-03-15 10:21:00,
2013-03-15 05:37:00,57.9,57.6,30.09,SSE,157,1.7,-999.0,99,-99.99,,,0.00,Acu-Link.com,2013-03-15 10:37:00,
2013-03-15 05:52:00,57.9,57.6,30.09,SSE,157,1.7,-999.0,99,-99.99,,,0.00,Acu-Link.com,2013-03-15 10:52:00,
2013-03-15 06:07:00,57.7,57.4,30.09,ESE,112,0.0,-999.0,99,-99.99,,,0.00,Acu-Link.com,2013-03-15 11:07:00,
2013-03-15 06:37:00,57.7,57.4,30.10,SE,135,1.7,-999.0,99,-99.99,,,0.00,Acu-Link.com,2013-03-15 11:37:00,
2013-03-15 06:52:00,57.7,57.4,30.11,SSE,157,1.7,-999.0,99,-99.99,,,0.00,Acu-Link.com,2013-03-15 11:52:00,
2013-03-15 07:07:00,56.8,56.5,30.10,SSE,157,0.0,-999.0,99,-99.99,,,0.00,Acu-Link.com,2013-03-15 12:07:00,
2013-03-15 07:37:00,55.4,55.1,30.11,SSE,157,0.0,-999.0,99,-99.99,,,0.00,Acu-Link.com,2013-03-15 12:37:00,
2013-03-15 07:53:00,55.6,55.3,30.11,SSE,157,0.0,-999.0,99,-99.99,,,0.00,Acu-Link.com,2013-03-15 12:53:00,
2013-03-15 08:08:00,54.7,54.4,30.10,South,180,1.1,-999.0,99,-99.99,,,0.00,Acu-Link.com,2013-03-15 13:08:00,
2013-03-15 08:23:00,55.8,55.5,30.10,SSE,157,2.2,-999.0,99,-99.99,,,0.00,Acu-Link.com,2013-03-15 13:23:00,
2013-03-15 08:38:00,57.9,57.6,30.11,SW,225,2.2,-999.0,99,-99.99,,,0.00,Acu-Link.com,2013-03-15 13:38:00,
2013-03-15 08:53:00,60.1,59.8,30.12,South,180,2.7,-999.0,99,-99.99,,,0.00,Acu-Link.com,2013-03-15 13:53:00,
2013-03-15 09:08:00,62.1,61.5,30.12,SSE,157,2.2,-999.0,98,-99.99,,,0.00,Acu-Link.com,2013-03-15 14:08:00,
2013-03-15 09:23:00,65.1,62.4,30.12,South,180,2.2,-999.0,91,-99.99,,,0.00,Acu-Link.com,2013-03-15 14:23:00,
2013-03-15 09:38:00,67.6,63.3,30.12,SSE,157,2.7,-999.0,86,-99.99,,,0.00,Acu-Link.com,2013-03-15 14:38:00,
2013-03-15 09:53:00,69.3,63.2,30.12,South,180,3.7,-999.0,81,-99.99,,,0.00,Acu-Link.com,2013-03-15 14:53:00,
2013-03-15 10:09:00,70.0,63.2,30.11,SSE,157,4.7,-999.0,79,-99.99,,,0.00,Acu-Link.com,2013-03-15 15:09:00,
2013-03-15 10:24:00,71.2,62.1,30.12,South,180,3.7,-999.0,73,-99.99,,,0.00,Acu-Link.com,2013-03-15 15:24:00,
2013-03-15 10:39:00,71.1,60.8,30.12,South,180,8.3,-999.0,70,-99.99,,,0.00,Acu-Link.com,2013-03-15 15:39:00,
2013-03-15 10:54:00,72.7,60.2,30.11,East,90,6.8,-999.0,65,-99.99,,,0.00,Acu-Link.com,2013-03-15 15:54:00,
2013-03-15 11:09:00,73.9,60.0,30.11,SSE,157,6.8,-999.0,62,-99.99,,,0.00,Acu-Link.com,2013-03-15 16:09:00,
2013-03-15 11:24:00,75.6,59.8,30.11,SSE,157,3.7,-999.0,58,-99.99,,,0.00,Acu-Link.com,2013-03-15 16:24:00,
2013-03-15 11:39:00,75.6,59.3,30.10,SSE,157,6.8,-999.0,57,-99.99,,,0.00,Acu-Link.com,2013-03-15 16:39:00,
2013-03-15 11:54:00,76.6,59.7,30.10,South,180,4.7,-999.0,56,-99.99,,,0.00,Acu-Link.com,2013-03-15 16:54:00,
2013-03-15 12:09:00,78.4,60.9,30.09,SSE,157,9.4,-999.0,55,-99.99,,,0.00,Acu-Link.com,2013-03-15 17:09:00,
2013-03-15 12:25:00,78.8,60.7,30.09,SSW,202,8.3,-999.0,54,-99.99,,,0.00,Acu-Link.com,2013-03-15 17:25:00,
2013-03-15 12:40:00,79.0,60.4,30.08,ESE,112,5.8,-999.0,53,-99.99,,,0.00,Acu-Link.com,2013-03-15 17:40:00,
2013-03-15 12:55:00,79.9,60.7,30.08,ESE,112,6.3,-999.0,52,-99.99,,,0.00,Acu-Link.com,2013-03-15 17:55:00,
2013-03-15 13:10:00,79.3,60.1,30.07,South,180,8.9,-999.0,52,-99.99,,,0.00,Acu-Link.com,2013-03-15 18:10:00,
2013-03-15 13:25:00,80.8,60.4,30.06,East,90,7.8,-999.0,50,-99.99,,,0.00,Acu-Link.com,2013-03-15 18:25:00,
2013-03-15 13:40:00,80.1,59.8,30.06,SSE,157,9.9,-999.0,50,-99.99,,,0.00,Acu-Link.com,2013-03-15 18:40:00,
2013-03-15 13:55:00,80.1,59.8,30.04,SSE,157,7.8,-999.0,50,-99.99,,,0.00,Acu-Link.com,2013-03-15 18:55:00,
2013-03-15 14:10:00,81.3,60.3,30.02,East,90,3.2,-999.0,49,-99.99,,,0.00,Acu-Link.com,2013-03-15 19:10:00,
2013-03-15 14:25:00,79.9,59.6,30.02,ESE,112,7.3,-999.0,50,-99.99,,,0.00,Acu-Link.com,2013-03-15 19:25:00,
2013-03-15 14:41:00,81.3,61.4,30.01,ESE,112,6.8,-999.0,51,-99.99,,,0.00,Acu-Link.com,2013-03-15 19:41:00,
2013-03-15 15:11:00,80.6,60.2,29.99,SSE,157,4.7,-999.0,50,-99.99,,,0.00,Acu-Link.com,2013-03-15 20:11:00,
2013-03-15 15:26:00,79.9,60.1,29.99,ESE,112,9.4,-999.0,51,-99.99,,,0.00,Acu-Link.com,2013-03-15 20:26:00,
2013-03-15 15:41:00,80.1,60.9,29.98,East,90,5.3,-999.0,52,-99.99,,,0.00,Acu-Link.com,2013-03-15 20:41:00,
2013-03-15 16:12:00,78.1,58.5,29.96,East,90,15.5,-999.0,51,-99.99,,,0.00,Acu-Link.com,2013-03-15 21:12:00,
2013-03-15 16:27:00,78.6,60.0,29.95,ESE,112,8.9,-999.0,53,-99.99,,,0.00,Acu-Link.com,2013-03-15 21:27:00,
2013-03-15 16:42:00,77.7,59.2,29.95,ESE,112,7.3,-999.0,53,-99.99,,,0.00,Acu-Link.com,2013-03-15 21:42:00,
2013-03-15 16:57:00,78.3,60.3,29.95,ESE,112,7.3,-999.0,54,-99.99,,,0.00,Acu-Link.com,2013-03-15 21:57:00,
2013-03-15 17:12:00,76.5,59.6,29.95,SSW,202,5.3,-999.0,56,-99.99,,,0.00,Acu-Link.com,2013-03-15 22:12:00,
2013-03-15 17:27:00,77.0,61.1,29.94,SSE,157,9.4,-999.0,58,-99.99,,,0.00,Acu-Link.com,2013-03-15 22:27:00,
2013-03-15 17:42:00,75.2,60.3,29.95,SSE,157,5.3,-999.0,60,-99.99,,,0.00,Acu-Link.com,2013-03-15 22:42:00,
2013-03-15 17:57:00,74.5,60.2,29.94,SSW,202,8.3,-999.0,61,-99.99,,,0.00,Acu-Link.com,2013-03-15 22:57:00,
2013-03-15 18:28:00,73.0,60.5,29.93,ESE,112,9.4,-999.0,65,-99.99,,,0.00,Acu-Link.com,2013-03-15 23:28:00,
2013-03-15 18:43:00,72.0,60.8,29.94,SSE,157,11.4,-999.0,68,-99.99,,,0.00,Acu-Link.com,2013-03-15 23:43:00,
2013-03-15 18:58:00,71.1,60.8,29.93,ESE,112,6.8,-999.0,70,-99.99,,,0.00,Acu-Link.com,2013-03-15 23:58:00,
2013-03-15 19:13:00,70.2,60.7,29.93,ESE,112,4.2,-999.0,72,-99.99,,,0.00,Acu-Link.com,2013-03-16 00:13:00,
2013-03-15 19:28:00,68.9,60.6,29.93,ESE,112,5.8,-999.0,75,-99.99,,,0.00,Acu-Link.com,2013-03-16 00:28:00,
2013-03-15 19:43:00,68.0,60.9,29.93,East,90,4.7,-999.0,78,-99.99,,,0.00,Acu-Link.com,2013-03-16 00:43:00,
2013-03-15 19:58:00,67.6,60.8,29.93,SE,135,10.4,-999.0,79,-99.99,,,0.00,Acu-Link.com,2013-03-16 00:58:00,
2013-03-15 20:13:00,67.3,61.3,29.94,SSE,157,3.7,-999.0,81,-99.99,,,0.00,Acu-Link.com,2013-03-16 01:13:00,
2013-03-15 20:29:00,66.9,61.2,29.93,ESE,112,6.8,-999.0,82,-99.99,,,0.00,Acu-Link.com,2013-03-16 01:29:00,
2013-03-15 20:44:00,66.6,61.3,29.94,SSE,157,7.8,-999.0,83,-99.99,,,0.00,Acu-Link.com,2013-03-16 01:44:00,
2013-03-15 20:59:00,66.2,61.2,29.94,East,90,7.8,-999.0,84,-99.99,,,0.00,Acu-Link.com,2013-03-16 01:59:00,
2013-03-15 21:14:00,66.0,61.4,29.94,NNE,22,2.2,-999.0,85,-99.99,,,0.00,Acu-Link.com,2013-03-16 02:14:00,
2013-03-15 21:29:00,65.8,61.2,29.95,ENE,67,6.8,-999.0,85,-99.99,,,0.00,Acu-Link.com,2013-03-16 02:29:00,
2013-03-15 21:44:00,65.7,61.4,29.95,SSE,157,2.7,-999.0,86,-99.99,,,0.00,Acu-Link.com,2013-03-16 02:44:00,
2013-03-15 21:59:00,65.3,61.3,29.96,ESE,112,3.2,-999.0,87,-99.99,,,0.00,Acu-Link.com,2013-03-16 02:59:00,
2013-03-15 22:14:00,64.9,61.3,29.96,ESE,112,5.3,-999.0,88,-99.99,,,0.00,Acu-Link.com,2013-03-16 03:14:00,
2013-03-15 22:29:00,64.8,61.5,29.96,East,90,6.8,-999.0,89,-99.99,,,0.00,Acu-Link.com,2013-03-16 03:29:00,
2013-03-15 22:45:00,64.6,61.3,29.96,South,180,6.3,-999.0,89,-99.99,,,0.00,Acu-Link.com,2013-03-16 03:45:00,
2013-03-15 23:00:00,64.2,61.2,29.96,SE,135,2.7,-999.0,90,-99.99,,,0.00,Acu-Link.com,2013-03-16 04:00:00,
2013-03-15 23:15:00,64.0,61.0,29.95,ESE,112,2.2,-999.0,90,-99.99,,,0.00,Acu-Link.com,2013-03-16 04:15:00,
2013-03-15 23:30:00,64.0,61.0,29.95,East,90,2.7,-999.0,90,-99.99,,,0.00,Acu-Link.com,2013-03-16 04:30:00,
2013-03-15 23:45:00,63.9,61.2,29.95,SE,135,2.7,-999.0,91,-99.99,,,0.00,Acu-Link.com,2013-03-16 04:45:00,